Villa Larca, Argentina
Current Conditions -  °F | °C
As of 8:00 AM on Thursday 23 Oct 2014 (Local Time) from SAOC Reporting Station
Clear Clear  
Wind Chill: 72°   Ceiling: Unl
Heat Index: 72°   Visibility: 6mi
Dew Point: 52°   Wind: 8mph
Humidity: 50%   Direction: 320°NW
Pressure: 29.94"   Gusts: NA
Location:  32.63°S, 64.98°W
Report Text: SAOC 231100Z 32007KT CAVOK 22/11 Q1014
Loading
Personal Weather Stations






























Interactive Weather Map
Tropical Storm Tracking
New forecast layout! Learn more

10-Day Weather Forecast

Advertisements
Track Severe Weather on mobile